Observations for JERSEY AIRPORT, United Kingdom (EGJJ)

EGJJ 182120Z 09015KT CAVOK 07/03 Q1019  
EGJJ 182050Z 09016KT CAVOK 07/03 Q1019  
EGJJ 182020Z 08018KT CAVOK 08/03 Q1019  
EGJJ 181950Z 09018KT CAVOK 08/03 Q1019  
EGJJ 181920Z 08017KT CAVOK 08/04 Q1019  
EGJJ 181850Z 07018G29KT CAVOK 08/05 Q1019   
EGJJ 181820Z 08016KT CAVOK 08/05 Q1019  
EGJJ 181750Z 08017KT CAVOK 08/04 Q1019  
EGJJ 181720Z 07017KT CAVOK 08/04 Q1019  
EGJJ 181650Z 08017KT CAVOK 07/03 Q1019  
EGJJ 181620Z 07018KT 9999 FEW016 08/03 Q1019
EGJJ 181550Z 07019KT CAVOK 08/03 Q1019  
EGJJ 181520Z 07017G27KT CAVOK 08/03 Q1019   
EGJJ 181450Z 08018KT CAVOK 09/03 Q1019  
EGJJ 181420Z 08018KT CAVOK 09/03 Q1019  
EGJJ 181350Z 08017KT 9999 FEW018 09/03 Q1020
EGJJ 181320Z 08016KT 9999 FEW018 09/04 Q1020
EGJJ 181250Z 08017KT 9999 FEW018 09/04 Q1020
EGJJ 181220Z 09016KT 9999 FEW018 09/04 Q1020
EGJJ 181150Z 09018KT 9999 FEW018 08/03 Q1021
EGJJ 181120Z 10018KT CAVOK 08/02 Q1021  
EGJJ 181050Z 10019KT CAVOK 08/02 Q1021  
EGJJ 181020Z 10018KT CAVOK 08/03 Q1021  
EGJJ 180950Z 09014KT 9999 FEW012 08/03 Q1021
EGJJ 180920Z 10015KT 9999 FEW012 07/02 Q1021
EGJJ 180850Z 09017KT 9999 FEW012 06/03 Q1021
EGJJ 180820Z 08017KT 9999 NSC 06/03 Q1021   
EGJJ 180750Z 09017KT CAVOK 05/02 Q1021  
EGJJ 180720Z 09015KT CAVOK 05/02 Q1021  
EGJJ 180650Z 09017KT 9999 FEW012 05/02 Q1021
EGJJ 180620Z 09018KT 9999 FEW012 05/03 Q1021
EGJJ 180550Z 09018KT 9999 FEW012 05/03 Q1021
EGJJ 180520Z AUTO 09017KT 9999 NCD 05/03 Q1020  
EGJJ 180450Z AUTO 08016KT 9999 NCD 05/03 Q1020  
EGJJ 180420Z AUTO 08016KT 9999 NCD 05/03 Q1020  
EGJJ 180350Z AUTO 09015KT 9999 NCD 05/03 Q1021  
EGJJ 180320Z AUTO 08018KT 9999 NCD 05/03 Q1020  
EGJJ 180250Z AUTO 08018KT 9999 NCD 05/03 Q1020  
EGJJ 180220Z AUTO 08017KT 9999 NCD 05/03 Q1021  
EGJJ 180150Z AUTO 09018KT 9999 NCD 05/03 Q1020  
EGJJ 180120Z AUTO 09019KT 9999 NCD 05/03 Q1021  
EGJJ 180050Z AUTO 10017KT 9999 NCD 05/03 Q1021  
EGJJ 180020Z AUTO 10017KT 9999 NCD 05/03 Q1021  
EGJJ 172350Z AUTO 10016KT 9999 NCD 05/03 Q1021  
EGJJ 172320Z AUTO 10015KT 9999 NCD 05/03 Q1021  
EGJJ 172250Z AUTO 10018KT 9999 NCD 05/03 Q1021  
EGJJ 172220Z AUTO 10020KT 9999 NCD 06/03 Q1021  
EGJJ 172150Z AUTO 11020KT 9999 NCD 06/03 Q1021  
EGJJ 172120Z AUTO 11021KT 9999 NCD 06/04 Q1021  
EGJJ 172050Z AUTO 11024KT 9999 NCD 06/04 Q1021